Time;durP1;ratioP1;P1;durP2;ratioP2;P2;SDS_P1;SDS_P2;PMS_P1;PMS_P2;Temp;Humidity;BMP_temperature;BMP_pressure;BME280_temperature;BME280_humidity;BME280_pressure;Samples;Min_cycle;Max_cycle;Signal;HPM_P1;HPM_P2
2023/11/23 00:02:19;;;;;;;33.03;14.57;;;-0.60;99.90;;;;;;2603688;47;22418;31
2023/11/23 00:04:54;;;;;;;32.85;16.33;;;-0.70;99.90;;;;;;2603196;47;20076;31
2023/11/23 00:07:29;;;;;;;34.55;16.30;;;-0.60;99.90;;;;;;2585067;54;20817;31
2023/11/23 00:10:04;;;;;;;34.20;16.00;;;-0.60;99.90;;;;;;2585008;54;20187;31
2023/11/23 00:12:37;;;;;;;32.90;16.30;;;-0.60;99.90;;;;;;2585349;54;21193;31
2023/11/23 00:15:15;;;;;;;31.70;15.00;;;-0.70;99.90;;;;;;2584964;54;20157;31
2023/11/23 00:17:50;;;;;;;30.45;15.95;;;-0.70;99.90;;;;;;2585153;54;20046;31
2023/11/23 00:20:25;;;;;;;33.25;16.60;;;-0.70;99.90;;;;;;2603298;47;20966;31
2023/11/23 00:22:58;;;;;;;41.72;16.63;;;-0.70;99.90;;;;;;2683123;39;21201;31
2023/11/23 00:25:32;;;;;;;39.17;17.17;;;-0.70;99.90;;;;;;2584932;54;20038;31
2023/11/23 00:28:08;;;;;;;34.13;14.97;;;-0.70;99.90;;;;;;2584106;54;20895;31
2023/11/23 00:30:45;;;;;;;33.77;15.27;;;-0.70;99.90;;;;;;2585058;54;20080;31
2023/11/23 00:33:19;;;;;;;33.50;15.55;;;-0.70;99.90;;;;;;2584952;54;20031;31
2023/11/23 00:35:58;;;;;;;34.90;15.80;;;-0.70;99.90;;;;;;2584881;54;20033;31
2023/11/23 00:38:33;;;;;;;40.92;16.80;;;-0.70;99.90;;;;;;2585026;54;20049;31
2023/11/23 00:41:09;;;;;;;32.30;15.60;;;-0.70;99.90;;;;;;2585032;54;20917;31
2023/11/23 00:43:43;;;;;;;35.53;16.02;;;-0.70;99.90;;;;;;2585196;54;21845;31
2023/11/23 00:46:19;;;;;;;36.47;15.90;;;-0.70;99.90;;;;;;2584967;54;20030;31
2023/11/23 00:48:53;;;;;;;31.27;15.52;;;-0.70;99.90;;;;;;2603775;47;20921;31
2023/11/23 00:51:27;;;;;;;35.93;17.10;;;-0.70;99.90;;;;;;2585812;54;20889;31
2023/11/23 00:54:04;;;;;;;39.35;16.80;;;-0.70;99.90;;;;;;2585625;54;20034;31
2023/11/23 00:56:39;;;;;;;40.13;16.50;;;-0.70;99.90;;;;;;2604431;46;20948;31
2023/11/23 00:59:15;;;;;;;35.60;16.90;;;-0.70;99.90;;;;;;2585737;54;20034;31
2023/11/23 01:01:51;;;;;;;36.57;17.50;;;-0.70;99.90;;;;;;2586002;54;20053;31
2023/11/23 01:04:27;;;;;;;37.35;16.70;;;-0.60;99.90;;;;;;2584827;54;20019;31
2023/11/23 01:06:59;;;;;;;;;;;-0.70;99.90;;;;;;2604295;46;21299;31
2023/11/23 01:09:35;;;;;;;34.30;15.00;;;-0.70;99.90;;;;;;2585670;54;20041;31
2023/11/23 01:12:12;;;;;;;35.47;17.30;;;-0.70;99.90;;;;;;2585833;54;20990;31
2023/11/23 01:14:47;;;;;;;33.20;14.95;;;-0.70;99.90;;;;;;2585594;54;20888;31
2023/11/23 01:17:23;;;;;;;37.35;15.43;;;-0.70;99.90;;;;;;2604221;46;22440;31
2023/11/23 01:19:56;;;;;;;;;;;-0.70;99.90;;;;;;2586075;54;20069;31
2023/11/23 01:22:30;;;;;;;39.20;15.82;;;-0.70;99.90;;;;;;2604397;46;21778;31
2023/11/23 01:25:08;;;;;;;42.08;16.75;;;-0.80;99.90;;;;;;2585843;54;21001;31
2023/11/23 01:27:43;;;;;;;36.20;16.13;;;-0.70;99.90;;;;;;2585823;54;20834;31
2023/11/23 01:30:16;;;;;;;41.90;15.97;;;-0.70;99.90;;;;;;2585943;54;20924;31
2023/11/23 01:32:52;;;;;;;38.67;16.60;;;-0.70;99.90;;;;;;2683810;39;21026;31
2023/11/23 01:35:26;;;;;;;38.03;16.03;;;-0.70;99.90;;;;;;2585597;54;20941;31
2023/11/23 01:37:59;;;;;;;37.20;14.05;;;-0.70;99.90;;;;;;2585301;54;20775;31
2023/11/23 01:40:35;;;;;;;37.87;15.63;;;-0.60;99.90;;;;;;2585332;54;20026;31
2023/11/23 01:43:11;;;;;;;34.70;15.63;;;-0.60;99.90;;;;;;2585514;54;20093;31
2023/11/23 01:45:47;;;;;;;36.00;15.85;;;-0.60;99.90;;;;;;2585542;54;19938;31
2023/11/23 01:48:25;;;;;;;37.45;15.90;;;-0.60;99.90;;;;;;2585620;54;20768;31
2023/11/23 01:50:58;;;;;;;37.75;15.35;;;-0.60;99.90;;;;;;2585422;54;19969;31
2023/11/23 01:53:33;;;;;;;33.95;14.85;;;-0.60;99.90;;;;;;2585420;54;20970;31
2023/11/23 01:56:08;;;;;;;36.20;13.93;;;-0.60;99.90;;;;;;2585618;54;20030;31
2023/11/23 01:58:43;;;;;;;31.10;15.15;;;-0.60;99.90;;;;;;2585518;54;20035;31
2023/11/23 02:01:16;;;;;;;31.02;14.63;;;-0.60;99.90;;;;;;2585307;54;20108;31
2023/11/23 02:03:54;;;;;;;34.08;16.52;;;-0.60;99.90;;;;;;2585509;54;20034;31
2023/11/23 02:06:30;;;;;;;32.80;15.70;;;-0.50;99.90;;;;;;2585270;54;20035;31
2023/11/23 02:09:06;;;;;;;31.05;14.75;;;-0.60;99.90;;;;;;2585382;54;21239;31
2023/11/23 02:11:40;;;;;;;32.88;14.90;;;-0.60;99.90;;;;;;2603948;46;20030;31
2023/11/23 02:14:13;;;;;;;35.10;14.85;;;-0.60;99.90;;;;;;2585488;54;20807;31
2023/11/23 02:16:46;;;;;;;34.87;16.47;;;-0.60;99.90;;;;;;2585330;54;20965;31
2023/11/23 02:19:24;;;;;;;31.90;14.75;;;-0.60;99.90;;;;;;2585480;54;20261;31
2023/11/23 02:21:59;;;;;;;36.95;15.40;;;-0.60;99.90;;;;;;2585207;54;20927;31
2023/11/23 02:24:38;;;;;;;40.15;16.55;;;-0.60;99.90;;;;;;2585390;54;20053;31
2023/11/23 02:27:13;;;;;;;36.13;15.40;;;-0.50;99.90;;;;;;2585414;54;21285;31
2023/11/23 02:29:49;;;;;;;34.77;15.47;;;-0.50;99.90;;;;;;2603981;46;20896;31
2023/11/23 02:32:25;;;;;;;35.90;14.95;;;-0.50;99.90;;;;;;2603927;46;22415;31
2023/11/23 02:34:58;;;;;;;36.15;15.75;;;-0.40;99.90;;;;;;2585409;54;22504;31
2023/11/23 02:37:32;;;;;;;32.60;15.05;;;-0.40;99.90;;;;;;2683451;39;21082;31
2023/11/23 02:40:14;;;;;;;30.85;14.85;;;-0.40;99.90;;;;;;2585233;54;20911;31
2023/11/23 02:42:48;;;;;;;37.10;16.75;;;-0.40;99.90;;;;;;2585581;54;20046;31
2023/11/23 02:45:22;;;;;;;34.25;15.73;;;-0.40;99.90;;;;;;2584481;54;20089;31
2023/11/23 02:47:59;;;;;;;29.52;14.27;;;-0.30;99.90;;;;;;2585252;54;20887;31
2023/11/23 02:50:33;;;;;;;35.85;14.57;;;-0.40;99.90;;;;;;2585443;54;20929;31
2023/11/23 02:53:17;;;;;;;37.40;16.10;;;-0.30;99.90;;;;;;2585224;54;20235;31
2023/11/23 02:55:56;;;;;;;35.60;15.82;;;-0.30;99.90;;;;;;2604177;46;21156;31
2023/11/23 02:58:31;;;;;;;29.05;13.85;;;-0.20;99.90;;;;;;2585371;54;20899;31
2023/11/23 03:01:06;;;;;;;30.70;14.15;;;-0.30;99.90;;;;;;2585422;54;20152;31
2023/11/23 03:03:43;;;;;;;31.97;14.93;;;-0.20;99.90;;;;;;2585162;54;21151;31
2023/11/23 03:06:18;;;;;;;34.50;14.73;;;-0.20;99.90;;;;;;2585369;54;20030;31
2023/11/23 03:08:54;;;;;;;38.25;15.00;;;-0.20;99.90;;;;;;2585135;54;20734;31
2023/11/23 03:11:32;;;;;;;34.83;14.93;;;-0.20;99.90;;;;;;2585066;54;20967;31
2023/11/23 03:14:05;;;;;;;28.90;14.60;;;-0.10;99.90;;;;;;2585401;54;20030;31
2023/11/23 03:16:38;;;;;;;34.23;15.33;;;-0.10;99.90;;;;;;2585494;54;20927;31
2023/11/23 03:19:13;;;;;;;31.30;15.20;;;0.00;99.90;;;;;;2585457;54;20089;31
2023/11/23 03:21:48;;;;;;;30.90;15.00;;;0.00;99.90;;;;;;2585541;54;22499;31
2023/11/23 03:24:21;;;;;;;34.72;16.02;;;0.00;99.90;;;;;;2603681;46;20114;31
2023/11/23 03:26:58;;;;;;;28.60;14.55;;;0.00;99.90;;;;;;2585205;54;20046;31
2023/11/23 03:29:33;;;;;;;33.50;13.52;;;0.10;99.90;;;;;;2585266;54;20032;31
2023/11/23 03:32:08;;;;;;;29.00;13.50;;;0.10;99.90;;;;;;2585254;54;20085;31
2023/11/23 03:34:43;;;;;;;31.60;14.52;;;0.20;99.90;;;;;;2585264;54;21016;31
2023/11/23 03:37:17;;;;;;;29.77;13.97;;;0.20;99.90;;;;;;2585407;54;20997;31
2023/11/23 03:39:52;;;;;;;31.80;14.70;;;0.20;99.90;;;;;;2585371;54;20027;31
2023/11/23 03:42:29;;;;;;;29.95;13.55;;;0.20;99.90;;;;;;2585290;54;20273;31
2023/11/23 03:45:06;;;;;;;26.27;11.77;;;0.30;99.90;;;;;;2585214;54;20135;31
2023/11/23 03:47:42;;;;;;;32.13;12.97;;;0.30;99.90;;;;;;2585267;54;20809;31
2023/11/23 03:50:16;;;;;;;33.60;13.65;;;0.40;99.90;;;;;;2603589;46;21938;31
2023/11/23 03:52:51;;;;;;;31.03;13.50;;;0.40;99.90;;;;;;2585175;54;20093;31
2023/11/23 03:55:23;;;;;;;30.27;13.80;;;0.40;99.90;;;;;;2584939;54;20027;31
2023/11/23 03:58:00;;;;;;;28.65;13.65;;;0.40;99.90;;;;;;2585215;54;20993;31
2023/11/23 04:00:34;;;;;;;32.55;14.13;;;0.50;99.90;;;;;;2603666;47;20049;31
2023/11/23 04:03:10;;;;;;;29.50;12.70;;;0.50;99.90;;;;;;2585075;54;21027;31
2023/11/23 04:05:45;;;;;;;31.47;14.30;;;0.50;99.90;;;;;;2584958;54;20917;31
2023/11/23 04:08:22;;;;;;;33.33;14.43;;;0.60;99.90;;;;;;2585040;54;20905;31
2023/11/23 04:10:57;;;;;;;30.83;13.00;;;0.60;99.90;;;;;;2603462;47;20816;31
2023/11/23 04:13:33;;;;;;;29.25;13.30;;;0.60;99.90;;;;;;2603754;47;20982;31
2023/11/23 04:16:08;;;;;;;27.35;12.85;;;0.60;99.90;;;;;;2585243;54;20057;31
2023/11/23 04:18:41;;;;;;;28.88;12.65;;;0.70;99.90;;;;;;2584908;54;20026;31
2023/11/23 04:21:14;;;;;;;30.00;14.30;;;0.70;99.90;;;;;;2585191;54;20830;31
2023/11/23 04:23:50;;;;;;;27.95;12.75;;;0.70;99.90;;;;;;2585637;54;20081;31
2023/11/23 04:26:23;;;;;;;27.70;12.90;;;0.70;99.90;;;;;;2585978;54;20990;31
2023/11/23 04:28:59;;;;;;;29.85;13.15;;;0.70;99.90;;;;;;2585793;54;21012;31
2023/11/23 04:31:32;;;;;;;28.10;12.48;;;0.80;99.90;;;;;;2585925;54;20071;31
2023/11/23 04:34:05;;;;;;;27.95;12.80;;;0.80;99.90;;;;;;2586280;54;20022;31
2023/11/23 04:36:40;;;;;;;30.20;12.25;;;0.80;99.90;;;;;;2585907;54;20026;31
2023/11/23 04:39:17;;;;;;;26.05;11.65;;;0.80;99.90;;;;;;2684040;39;21078;31
2023/11/23 04:41:51;;;;;;;28.30;10.98;;;0.90;99.90;;;;;;2604356;46;20987;31
2023/11/23 04:44:28;;;;;;;23.40;12.80;;;0.80;99.90;;;;;;2585364;54;21565;31
2023/11/23 04:47:03;;;;;;;24.50;11.05;;;0.90;99.90;;;;;;2585590;54;20094;31
2023/11/23 04:49:38;;;;;;;25.52;11.82;;;0.90;99.90;;;;;;2603998;46;20946;31
2023/11/23 04:52:13;;;;;;;24.75;12.00;;;0.90;99.90;;;;;;2585807;54;20033;31
2023/11/23 04:54:48;;;;;;;25.88;12.10;;;1.00;99.90;;;;;;2585804;54;20026;31
2023/11/23 04:57:22;;;;;;;24.20;11.60;;;1.00;99.90;;;;;;2585993;54;21165;31
2023/11/23 04:59:58;;;;;;;26.10;12.30;;;1.00;99.90;;;;;;2585684;54;20038;31
2023/11/23 05:02:33;;;;;;;;;;;1.10;99.90;;;;;;2586107;54;20905;31
2023/11/23 05:05:07;;;;;;;25.15;11.15;;;1.10;99.90;;;;;;2586050;54;21217;31
2023/11/23 05:07:42;;;;;;;23.05;10.35;;;1.10;99.90;;;;;;2585722;54;20126;31
2023/11/23 05:10:15;;;;;;;25.23;11.00;;;1.10;99.90;;;;;;2585601;54;20909;31
2023/11/23 05:12:48;;;;;;;22.65;10.80;;;1.20;99.90;;;;;;2585563;54;20902;31
2023/11/23 05:15:25;;;;;;;24.50;12.40;;;1.20;99.90;;;;;;2593761;46;20945;31
2023/11/23 05:17:59;;;;;;;23.10;11.80;;;1.20;99.90;;;;;;2585715;54;20917;31
2023/11/23 05:20:33;;;;;;;26.55;11.55;;;1.20;99.90;;;;;;2585638;54;20031;31
2023/11/23 05:23:06;;;;;;;20.15;10.90;;;1.30;99.90;;;;;;2585437;54;20060;31
2023/11/23 05:25:41;;;;;;;23.40;12.10;;;1.30;99.90;;;;;;2585735;54;20892;31
2023/11/23 05:28:16;;;;;;;25.20;12.30;;;1.30;99.90;;;;;;2585636;54;21924;31
2023/11/23 05:30:54;;;;;;;24.65;10.75;;;1.30;99.90;;;;;;2585689;54;20915;31
2023/11/23 05:33:30;;;;;;;21.27;11.40;;;1.40;99.90;;;;;;2585629;54;21006;31
2023/11/23 05:36:04;;;;;;;28.35;11.70;;;1.40;99.90;;;;;;2603990;46;20931;31
2023/11/23 05:38:37;;;;;;;22.08;11.13;;;1.40;99.90;;;;;;2684035;39;22189;31
2023/11/23 05:41:10;;;;;;;25.50;10.20;;;1.40;99.90;;;;;;2584952;54;20920;31
2023/11/23 05:43:43;;;;;;;22.53;11.10;;;1.40;99.90;;;;;;2604313;46;20034;31
2023/11/23 05:46:20;;;;;;;24.53;10.83;;;1.50;99.90;;;;;;2585440;54;20108;31
2023/11/23 05:48:54;;;;;;;21.23;10.20;;;1.50;99.90;;;;;;2585518;54;20101;31
2023/11/23 05:51:29;;;;;;;23.20;10.40;;;1.50;99.90;;;;;;2585608;54;20950;31
2023/11/23 05:54:05;;;;;;;25.55;11.93;;;1.50;99.90;;;;;;2585618;54;20030;31
2023/11/23 05:56:41;;;;;;;18.20;10.33;;;1.60;99.90;;;;;;2585411;54;20054;31
2023/11/23 05:59:14;;;;;;;28.90;11.33;;;1.60;99.90;;;;;;2585529;54;20248;31
2023/11/23 06:01:52;;;;;;;22.13;10.10;;;1.60;99.90;;;;;;2603760;46;20983;31
2023/11/23 06:04:26;;;;;;;21.98;10.55;;;1.60;99.90;;;;;;2603517;46;20804;31
2023/11/23 06:07:00;;;;;;;23.63;10.85;;;1.70;99.90;;;;;;2585567;54;20033;31
2023/11/23 06:09:35;;;;;;;20.95;11.07;;;1.70;99.90;;;;;;2585300;54;20032;31
2023/11/23 06:12:12;;;;;;;18.27;9.05;;;1.70;99.90;;;;;;2585609;54;20143;31
2023/11/23 06:14:46;;;;;;;23.80;11.85;;;1.70;99.90;;;;;;2585326;54;20847;31
2023/11/23 06:17:24;;;;;;;25.55;11.65;;;1.80;99.90;;;;;;2584822;54;21068;31
2023/11/23 06:19:59;;;;;;;23.00;10.87;;;1.80;99.90;;;;;;2584594;54;20926;31
2023/11/23 06:22:33;;;;;;;30.73;10.50;;;1.80;99.90;;;;;;2585674;54;20056;31
2023/11/23 06:25:07;;;;;;;44.75;13.10;;;1.80;99.90;;;;;;2584947;54;21114;31
2023/11/23 06:27:43;;;;;;;24.25;11.23;;;1.90;99.90;;;;;;2585489;54;21038;31
2023/11/23 06:30:17;;;;;;;20.25;9.93;;;1.90;99.90;;;;;;2604349;46;20023;31
2023/11/23 06:32:55;;;;;;;21.30;10.93;;;1.90;99.90;;;;;;2585423;54;20049;31
2023/11/23 06:35:30;;;;;;;21.45;10.98;;;2.00;99.90;;;;;;2585388;54;20105;31
2023/11/23 06:38:05;;;;;;;21.88;9.88;;;2.00;99.90;;;;;;2585315;54;20016;31
2023/11/23 06:40:38;;;;;;;20.20;9.50;;;2.00;99.90;;;;;;2584544;54;20057;31
2023/11/23 06:43:11;;;;;;;20.35;10.02;;;2.10;99.90;;;;;;2585257;54;20087;31
2023/11/23 06:45:45;;;;;;;18.95;10.20;;;2.10;99.90;;;;;;2585294;54;20030;31
2023/11/23 06:48:21;;;;;;;21.03;9.90;;;2.10;99.90;;;;;;2603920;46;20053;31
2023/11/23 06:50:54;;;;;;;20.75;10.50;;;2.10;99.90;;;;;;2603606;46;21127;31
2023/11/23 06:53:27;;;;;;;18.95;9.45;;;;;;;;;;2604293;46;20912;31
2023/11/23 06:56:02;;;;;;;17.20;9.27;;;;;;;;;;2587065;54;20085;-81
2023/11/23 06:58:36;;;;;;;22.30;9.50;;;2.10;99.90;;;;;;2763803;31;20033;31
2023/11/23 07:01:11;;;;;;;21.17;9.80;;;2.40;99.90;;;;;;2585409;54;20053;31
2023/11/23 07:03:46;;;;;;;18.58;10.15;;;2.30;99.90;;;;;;2585532;54;20030;31
2023/11/23 07:06:23;;;;;;;20.25;10.90;;;2.30;99.90;;;;;;2702143;39;21091;31
2023/11/23 07:08:57;;;;;;;21.40;10.15;;;2.30;99.90;;;;;;2585298;54;20022;31
2023/11/23 07:11:30;;;;;;;18.50;9.60;;;2.30;99.90;;;;;;2585470;54;20947;31
2023/11/23 07:14:06;;;;;;;17.83;8.63;;;;;;;;;;2585107;54;20026;31
2023/11/23 07:16:39;;;;;;;18.95;8.65;;;2.50;99.90;;;;;;2590594;46;20026;31
2023/11/23 07:19:14;;;;;;;17.10;8.85;;;2.50;99.90;;;;;;2585364;54;20807;31
2023/11/23 07:21:48;;;;;;;17.60;8.87;;;2.40;99.90;;;;;;2584720;54;21022;31
2023/11/23 07:24:21;;;;;;;18.20;8.50;;;2.40;99.90;;;;;;2584972;54;20049;31
2023/11/23 07:26:55;;;;;;;18.60;8.10;;;2.50;99.90;;;;;;2585550;54;21951;31
2023/11/23 07:29:31;;;;;;;18.15;8.00;;;2.40;99.90;;;;;;2585004;54;20031;31
2023/11/23 07:32:08;;;;;;;18.57;8.40;;;2.50;99.90;;;;;;2585299;54;20030;31
2023/11/23 07:34:44;;;;;;;17.85;8.23;;;2.50;99.90;;;;;;2585616;54;21084;31
2023/11/23 07:37:16;;;;;;;19.33;8.85;;;2.60;99.90;;;;;;2584956;54;20144;31
2023/11/23 07:39:51;;;;;;;16.70;8.20;;;2.60;99.90;;;;;;2585452;54;20936;31
2023/11/23 07:42:24;;;;;;;16.50;8.10;;;2.60;99.90;;;;;;2585140;54;20026;31
2023/11/23 07:44:59;;;;;;;17.65;8.75;;;2.60;99.90;;;;;;2585073;54;21006;31
2023/11/23 07:47:35;;;;;;;15.43;7.93;;;2.70;99.90;;;;;;2584804;54;20027;31
2023/11/23 07:50:14;;;;;;;15.02;8.52;;;2.60;99.90;;;;;;2584931;54;20237;31
2023/11/23 07:52:48;;;;;;;15.95;7.40;;;2.70;99.90;;;;;;2584911;54;20826;31
2023/11/23 07:55:21;;;;;;;15.48;8.35;;;2.70;99.90;;;;;;2585044;54;20105;31
2023/11/23 07:57:54;;;;;;;13.05;7.05;;;2.70;99.90;;;;;;2585018;54;20077;31
2023/11/23 08:00:27;;;;;;;14.20;7.45;;;2.80;99.90;;;;;;2586166;54;20033;31
2023/11/23 08:03:01;;;;;;;13.10;7.07;;;2.80;99.90;;;;;;2585947;54;20938;31
2023/11/23 08:05:40;;;;;;;12.80;7.93;;;2.80;99.90;;;;;;2585848;54;20031;31
2023/11/23 08:08:13;;;;;;;15.70;7.88;;;2.90;99.90;;;;;;2684169;39;21031;31
2023/11/23 08:10:49;;;;;;;12.88;6.45;;;3.00;99.90;;;;;;2586040;54;20885;31
2023/11/23 08:13:22;;;;;;;15.70;7.13;;;3.00;99.90;;;;;;2585663;54;20037;31
2023/11/23 08:15:57;;;;;;;14.07;7.15;;;;;;;;;;2585598;54;20936;31
2023/11/23 08:18:31;;;;;;;13.35;5.70;;;;;;;;;;2604163;46;20825;31
2023/11/23 08:21:23;;;;;;;12.35;6.35;;;3.20;99.90;;;;;;2585943;54;20898;31
2023/11/23 08:23:56;;;;;;;12.43;6.70;;;3.20;99.90;;;;;;2585289;54;20077;31
2023/11/23 08:26:31;;;;;;;11.80;6.15;;;;;;;;;;2585775;54;20030;31
2023/11/23 08:29:04;;;;;;;12.38;6.22;;;;;;;;;;2585876;54;20942;31
2023/11/23 08:31:38;;;;;;;15.37;6.40;;;3.40;99.90;;;;;;2585848;54;20932;31
2023/11/23 08:34:11;;;;;;;12.17;6.27;;;3.40;99.90;;;;;;2585464;54;20026;31
2023/11/23 08:36:48;;;;;;;13.00;6.27;;;;;;;;;;2585581;54;20933;31
2023/11/23 08:39:23;;;;;;;11.60;6.32;;;;;;;;;;2586114;54;20890;31
2023/11/23 08:41:56;;;;;;;11.55;5.95;;;;;;;;;;2604491;46;21886;31
2023/11/23 08:44:31;;;;;;;14.05;6.70;;;;;;;;;;2585777;54;20990;31
2023/11/23 08:47:06;;;;;;;10.67;5.23;;;;;;;;;;2585522;54;20048;31
2023/11/23 08:49:39;;;;;;;12.00;5.90;;;;;;;;;;2604524;46;20257;31
2023/11/23 08:52:15;;;;;;;10.18;4.75;;;;;;;;;;2585911;54;20029;31
2023/11/23 08:54:50;;;;;;;10.40;5.20;;;;;;;;;;2604105;46;20120;31
2023/11/23 08:57:23;;;;;;;8.85;4.55;;;;;;;;;;2585857;54;20077;31
2023/11/23 08:59:56;;;;;;;11.50;5.20;;;;;;;;;;2604351;46;20053;31
2023/11/23 09:02:33;;;;;;;14.80;5.40;;;;;;;;;;2585806;54;21116;31
2023/11/23 09:05:09;;;;;;;11.15;4.20;;;;;;;;;;2586051;54;20061;31
2023/11/23 09:07:46;;;;;;;9.57;4.90;;;;;;;;;;2585965;54;21160;31
2023/11/23 09:10:20;;;;;;;8.00;4.80;;;4.20;99.90;;;;;;2585192;54;21065;31
2023/11/23 09:12:55;;;;;;;7.97;4.37;;;;;;;;;;2584658;54;21194;31
2023/11/23 09:15:28;;;;;;;8.15;4.50;;;4.30;99.90;;;;;;2604232;46;20022;31
2023/11/23 09:18:01;;;;;;;7.18;4.10;;;4.30;99.90;;;;;;2683694;39;21078;31
2023/11/23 09:20:36;;;;;;;9.63;3.93;;;;;;;;;;2585430;54;20048;31
2023/11/23 09:23:14;;;;;;;8.05;3.47;;;;;;;;;;2585892;54;20237;31
2023/11/23 09:25:47;;;;;;;7.05;3.90;;;;;;;;;;2585251;54;20026;31
2023/11/23 09:28:20;;;;;;;6.45;3.25;;;4.70;99.90;;;;;;2585705;54;20794;31
2023/11/23 09:30:54;;;;;;;4.05;2.85;;;4.60;99.90;;;;;;2603816;46;20822;31
2023/11/23 09:33:27;;;;;;;5.10;3.10;;;4.70;99.90;;;;;;2585518;54;20113;31
2023/11/23 09:36:01;;;;;;;5.40;3.23;;;;;;;;;;2585505;54;20980;31
2023/11/23 09:38:40;;;;;;;7.15;3.35;;;;;;;;;;2585758;54;20906;31
2023/11/23 09:41:18;;;;;;;4.70;2.95;;;5.00;99.90;;;;;;2585684;54;20241;31
2023/11/23 09:43:53;;;;;;;7.40;3.35;;;4.90;99.90;;;;;;2604075;46;21050;31
2023/11/23 09:46:28;;;;;;;9.18;3.45;;;;;;;;;;2603649;46;20154;31
2023/11/23 09:49:02;;;;;;;5.45;2.75;;;5.10;99.90;;;;;;2585394;54;20802;31
2023/11/23 09:51:37;;;;;;;5.10;2.90;;;5.20;99.90;;;;;;2585713;54;20108;31
2023/11/23 09:54:14;;;;;;;7.25;2.83;;;5.20;99.90;;;;;;2603901;46;21865;31
2023/11/23 09:56:47;;;;;;;3.90;2.45;;;5.20;99.90;;;;;;2585486;54;19941;31
2023/11/23 09:59:20;;;;;;;5.03;2.27;;;5.30;99.90;;;;;;2585509;54;20057;31
2023/11/23 10:01:55;;;;;;;7.10;2.50;;;5.40;99.90;;;;;;2585256;54;20809;31
2023/11/23 10:04:30;;;;;;;15.75;9.90;;;5.50;99.90;;;;;;2585464;54;20053;31
2023/11/23 10:07:05;;;;;;;16.93;7.30;;;5.50;99.90;;;;;;2585137;54;20886;31
2023/11/23 10:09:40;;;;;;;30.87;8.83;;;5.60;99.90;;;;;;2585179;54;20124;31
2023/11/23 10:12:15;;;;;;;62.70;18.02;;;5.70;99.90;;;;;;2585193;54;20945;31
2023/11/23 10:17:43;;;;;;;34.50;12.35;;;5.80;99.90;;;;;;2585784;46;21199;31
2023/11/23 10:20:16;;;;;;;23.80;9.50;;;5.80;99.90;;;;;;2585020;54;20918;31
2023/11/23 10:22:50;;;;;;;9.95;3.70;;;5.90;99.90;;;;;;2585196;54;20050;31
2023/11/23 10:25:31;;;;;;;6.85;4.00;;;5.90;99.90;;;;;;2603282;46;20027;31
2023/11/23 10:28:07;;;;;;;16.43;6.40;;;5.90;99.90;;;;;;2585217;54;20031;31
2023/11/23 10:30:41;;;;;;;18.30;7.15;;;6.00;99.90;;;;;;2585459;54;20300;31
2023/11/23 10:33:16;;;;;;;20.20;8.00;;;6.00;99.90;;;;;;2585111;54;20030;31
2023/11/23 10:35:55;;;;;;;7.78;4.53;;;6.10;99.90;;;;;;2585081;54;20030;31
2023/11/23 10:57:32;;;;;;;7.68;3.97;;;6.70;99.90;;;;;;2585039;54;20754;31
2023/11/23 11:02:52;;;;;;;6.35;3.50;;;6.80;99.90;;;;;;2603548;46;21189;31
2023/11/23 11:05:28;;;;;;;9.73;4.00;;;6.80;99.90;;;;;;2603896;46;20268;31
2023/11/23 11:08:05;;;;;;;13.95;6.90;;;6.90;99.90;;;;;;2603535;46;21126;31
2023/11/23 11:10:50;;;;;;;27.57;10.83;;;6.90;99.90;;;;;;2584733;54;20891;31
2023/11/23 11:13:28;;;;;;;31.10;11.05;;;7.00;99.90;;;;;;2585481;54;21185;31
2023/11/23 11:16:03;;;;;;;42.20;14.35;;;7.00;99.90;;;;;;2585152;54;20056;31
2023/11/23 11:18:38;;;;;;;12.45;6.60;;;7.00;99.90;;;;;;2585023;54;20028;31
2023/11/23 11:21:13;;;;;;;19.65;8.35;;;7.00;99.90;;;;;;2585191;54;22464;31
2023/11/23 11:23:50;;;;;;;25.50;10.00;;;7.10;99.90;;;;;;2584926;54;20936;31
2023/11/23 11:26:27;;;;;;;;;;;7.10;99.90;;;;;;2585067;54;21206;31
2023/11/23 11:29:05;;;;;;;35.20;12.60;;;7.10;99.90;;;;;;2585342;54;21801;31
2023/11/23 11:31:40;;;;;;;28.17;12.07;;;7.20;99.90;;;;;;2584900;54;19934;31
2023/11/23 11:34:22;;;;;;;21.98;8.80;;;7.20;99.90;;;;;;2585192;54;20812;31
2023/11/23 11:36:59;;;;;;;9.80;4.70;;;7.20;99.90;;;;;;2584995;54;20929;31
2023/11/23 11:39:35;;;;;;;19.85;9.30;;;7.30;99.90;;;;;;2584953;54;20033;31
2023/11/23 11:42:09;;;;;;;;;;;7.30;99.90;;;;;;2585167;54;20914;31
2023/11/23 11:44:50;;;;;;;7.80;4.30;;;7.40;99.90;;;;;;2585012;54;19986;31
2023/11/23 11:47:23;;;;;;;10.45;4.90;;;7.40;99.90;;;;;;2584821;54;20943;31
2023/11/23 11:50:00;;;;;;;19.45;8.48;;;7.40;99.90;;;;;;2585085;54;20037;31
2023/11/23 11:52:37;;;;;;;12.75;5.43;;;7.50;99.90;;;;;;2584648;54;20922;31
2023/11/23 11:55:13;;;;;;;24.55;9.70;;;7.50;99.90;;;;;;2584702;54;20921;31
2023/11/23 11:57:47;;;;;;;14.93;5.07;;;7.50;99.90;;;;;;2584927;54;20190;31
2023/11/23 12:03:11;;;;;;;100.15;29.90;;;7.60;99.90;;;;;;2584188;54;20941;31
2023/11/23 12:05:48;;;;;;;104.35;27.55;;;7.50;99.90;;;;;;2584310;54;20126;31
2023/11/23 12:08:25;;;;;;;131.95;38.38;;;7.50;99.90;;;;;;2584267;54;20833;31
2023/11/23 12:10:59;;;;;;;67.40;32.17;;;7.60;99.90;;;;;;2584349;54;20026;31
2023/11/23 12:13:34;;;;;;;34.60;16.50;;;7.60;99.90;;;;;;2584835;54;20919;31
2023/11/23 12:16:14;;;;;;;40.60;23.58;;;7.60;99.90;;;;;;2583749;54;20966;31
2023/11/23 12:18:54;;;;;;;15.60;9.75;;;7.60;99.90;;;;;;2603009;47;20061;31
2023/11/23 12:21:29;;;;;;;14.75;8.10;;;7.60;99.90;;;;;;2584834;54;20030;31
2023/11/23 12:24:05;;;;;;;24.58;15.10;;;7.70;99.90;;;;;;2584831;54;20030;31
2023/11/23 12:26:42;;;;;;;14.03;9.23;;;7.70;99.90;;;;;;2584203;54;20034;31
2023/11/23 12:29:23;;;;;;;11.55;5.80;;;7.70;99.90;;;;;;2603348;47;20879;31
2023/11/23 12:31:58;;;;;;;5.90;3.50;;;7.80;99.90;;;;;;2584556;54;20117;31
2023/11/23 12:34:34;;;;;;;10.23;5.75;;;7.80;99.90;;;;;;2584974;54;20737;31
2023/11/23 12:37:09;;;;;;;10.18;5.53;;;7.80;99.90;;;;;;2603170;47;20030;31
2023/11/23 12:39:44;;;;;;;8.50;4.20;;;7.80;99.90;;;;;;2584365;54;20787;31
2023/11/23 12:42:17;;;;;;;7.28;4.20;;;7.70;99.90;;;;;;2682980;39;21223;31
2023/11/23 12:44:51;;;;;;;9.00;5.43;;;7.80;99.90;;;;;;2584819;54;20027;31
2023/11/23 12:47:28;;;;;;;9.20;5.70;;;7.80;99.90;;;;;;2585488;54;20958;31
2023/11/23 12:50:04;;;;;;;20.30;10.57;;;7.70;99.90;;;;;;2585571;54;20966;31
2023/11/23 12:52:41;;;;;;;13.60;7.00;;;7.70;99.90;;;;;;2585694;54;20058;31
2023/11/23 12:55:17;;;;;;;7.70;3.70;;;7.70;99.90;;;;;;2585571;54;20924;31
2023/11/23 12:57:53;;;;;;;7.95;4.70;;;7.70;99.90;;;;;;2585530;54;20925;31
2023/11/23 13:00:35;;;;;;;6.00;3.10;;;7.70;99.90;;;;;;2585684;54;20913;31
2023/11/23 13:03:09;;;;;;;8.45;4.68;;;7.70;99.90;;;;;;2585413;54;20038;31
2023/11/23 13:05:46;;;;;;;6.78;4.03;;;7.60;99.90;;;;;;2604030;46;20037;31
2023/11/23 13:08:22;;;;;;;6.37;3.63;;;7.60;99.90;;;;;;2604044;46;20911;31
2023/11/23 13:10:57;;;;;;;8.85;5.95;;;7.50;99.90;;;;;;2604076;46;20810;31
2023/11/23 13:13:32;;;;;;;8.68;4.68;;;7.50;99.90;;;;;;2585793;54;20784;31
2023/11/23 13:16:08;;;;;;;6.67;3.73;;;7.50;99.90;;;;;;2585383;54;20030;31
2023/11/23 13:18:45;;;;;;;;;;;7.40;99.90;;;;;;2586149;54;21363;31
2023/11/23 13:39:47;;;;;;;7.40;4.90;;;7.30;99.90;;;;;;2604187;46;20053;31
2023/11/23 13:45:09;;;;;;;5.60;3.00;;;7.20;99.90;;;;;;2599906;46;20933;31
2023/11/23 13:47:44;;;;;;;5.80;3.30;;;7.10;99.90;;;;;;2585485;54;20939;31
2023/11/23 13:50:19;;;;;;;6.70;3.50;;;7.10;99.90;;;;;;2585505;54;20029;31
2023/11/23 13:52:54;;;;;;;6.55;3.30;;;7.10;99.90;;;;;;2603563;46;21180;31
2023/11/23 13:55:32;;;;;;;4.60;3.30;;;7.10;99.90;;;;;;2584177;54;20129;31
2023/11/23 13:58:07;;;;;;;8.70;4.00;;;7.10;99.90;;;;;;2585191;54;20054;31
2023/11/23 14:00:43;;;;;;;6.63;3.73;;;7.10;99.90;;;;;;2596056;46;20801;31
2023/11/23 14:10:38;;;;;;;8.73;3.85;;;7.10;99.90;;;;;;2585497;54;20022;31
2023/11/23 14:13:13;;;;;;;5.93;3.53;;;7.10;99.90;;;;;;2585067;54;20049;31
2023/11/23 14:15:50;;;;;;;6.67;3.23;;;7.20;99.90;;;;;;2585268;54;20836;31
2023/11/23 14:18:23;;;;;;;6.43;3.33;;;7.20;99.90;;;;;;2585268;54;20076;31
2023/11/23 14:20:58;;;;;;;10.97;3.93;;;7.20;99.90;;;;;;2585208;54;20106;31
2023/11/23 14:23:33;;;;;;;6.80;3.40;;;7.20;99.90;;;;;;2603174;46;20038;31
2023/11/23 14:26:11;;;;;;;9.20;3.70;;;7.20;99.90;;;;;;2584802;54;20149;31
2023/11/23 14:28:45;;;;;;;8.20;3.55;;;7.20;99.90;;;;;;2584770;54;20252;31
2023/11/23 14:31:22;;;;;;;7.82;4.03;;;7.20;99.90;;;;;;2603607;46;20814;31
2023/11/23 14:33:57;;;;;;;5.03;3.25;;;7.20;99.90;;;;;;2585337;54;21198;31
2023/11/23 14:36:32;;;;;;;4.47;2.42;;;7.20;99.90;;;;;;2585232;54;20908;31
2023/11/23 14:39:07;;;;;;;4.55;2.50;;;7.20;99.90;;;;;;2585415;54;20938;31